Time;durP1;ratioP1;P1;durP2;ratioP2;P2;SDS_P1;SDS_P2;PMS_P1;PMS_P2;Temp;Humidity;BMP_temperature;BMP_pressure;BME280_temperature;BME280_humidity;BME280_pressure;Samples;Min_cycle;Max_cycle;Signal;HPM_P1;HPM_P2
2021/12/30 00:01:04;;;;;;;26.38;13.65;;;13.80;99.90;;;;;;2079396;28;20025;-72
2021/12/30 00:02:04;;;;;;;26.98;13.05;;;13.80;99.90;;;;;;2079656;28;20034;-72
2021/12/30 00:03:06;;;;;;;29.10;14.88;;;13.80;99.90;;;;;;2071391;28;20056;-72
2021/12/30 00:04:07;;;;;;;31.02;13.60;;;13.80;99.90;;;;;;2075434;28;20021;-72
2021/12/30 00:05:09;;;;;;;32.05;14.48;;;13.80;99.90;;;;;;2080031;28;20036;-72
2021/12/30 00:06:10;;;;;;;28.48;14.25;;;13.80;99.90;;;;;;2080569;28;20029;-71
2021/12/30 00:07:11;;;;;;;27.55;13.70;;;13.80;99.90;;;;;;2080848;28;20025;-72
2021/12/30 00:08:12;;;;;;;32.10;14.10;;;13.80;99.90;;;;;;2080981;28;20104;-72
2021/12/30 00:09:18;;;;;;;28.75;13.25;;;13.80;99.90;;;;;;2080461;28;20485;-72
2021/12/30 00:10:19;;;;;;;31.55;13.65;;;13.70;99.90;;;;;;2081818;28;20029;-72
2021/12/30 00:11:20;;;;;;;35.72;13.98;;;13.80;99.90;;;;;;2088546;28;20021;-72
2021/12/30 00:12:20;;;;;;;29.58;13.90;;;13.80;99.90;;;;;;2085467;28;20053;-71
2021/12/30 00:13:21;;;;;;;28.88;15.07;;;13.80;99.90;;;;;;2088046;28;20032;-71
2021/12/30 00:14:22;;;;;;;30.13;14.32;;;13.80;99.90;;;;;;2081017;28;20389;-71
2021/12/30 00:15:23;;;;;;;28.60;15.82;;;13.80;99.90;;;;;;2079668;28;20561;-71
2021/12/30 00:16:24;;;;;;;34.92;16.23;;;13.70;99.90;;;;;;2080783;28;20494;-71
2021/12/30 00:17:24;;;;;;;36.55;16.33;;;13.70;99.90;;;;;;2080576;28;21078;-72
2021/12/30 00:18:26;;;;;;;29.35;16.20;;;13.70;99.90;;;;;;2083040;28;20519;-71
2021/12/30 00:19:26;;;;;;;31.48;15.63;;;13.70;99.90;;;;;;2081667;28;20029;-71
2021/12/30 00:20:27;;;;;;;33.95;16.70;;;13.70;99.90;;;;;;2080620;28;20029;-71
2021/12/30 00:21:27;;;;;;;33.63;15.93;;;13.70;99.90;;;;;;2080317;28;20393;-71
2021/12/30 00:22:28;;;;;;;36.33;16.92;;;13.70;99.90;;;;;;2080544;28;20025;-71
2021/12/30 00:23:29;;;;;;;35.67;16.27;;;13.70;99.90;;;;;;2080080;28;20468;-71
2021/12/30 00:24:30;;;;;;;33.80;16.58;;;13.70;99.90;;;;;;2080414;28;20560;-72
2021/12/30 00:25:38;;;;;;;32.42;16.25;;;13.70;99.90;;;;;;2082126;28;20539;-71
2021/12/30 00:26:38;;;;;;;34.95;16.30;;;13.70;99.90;;;;;;2080897;28;20562;-72
2021/12/30 00:27:40;;;;;;;32.65;15.63;;;13.70;99.90;;;;;;2080090;28;20124;-71
2021/12/30 00:28:40;;;;;;;34.65;15.95;;;13.60;99.90;;;;;;2080847;28;20032;-72
2021/12/30 00:29:41;;;;;;;29.35;15.98;;;13.60;99.90;;;;;;2080353;28;20022;-71
2021/12/30 00:30:42;;;;;;;28.90;16.15;;;13.60;99.90;;;;;;2080782;28;20072;-72
2021/12/30 00:31:43;;;;;;;34.13;16.20;;;13.60;99.90;;;;;;2080045;28;20148;-71
2021/12/30 00:32:43;;;;;;;34.38;15.38;;;13.60;99.90;;;;;;2088203;28;20025;-71
2021/12/30 00:33:44;;;;;;;31.48;15.23;;;13.70;99.90;;;;;;2088075;28;20029;-71
2021/12/30 00:34:44;;;;;;;31.52;14.57;;;13.60;99.90;;;;;;2087588;28;20057;-72
2021/12/30 00:35:45;;;;;;;32.80;15.23;;;13.60;99.90;;;;;;2087992;28;20021;-71
2021/12/30 00:36:46;;;;;;;35.75;15.98;;;13.60;99.90;;;;;;2087364;28;20288;-71
2021/12/30 00:37:47;;;;;;;29.60;14.15;;;13.60;99.90;;;;;;2088962;28;20031;-72
2021/12/30 00:38:48;;;;;;;32.97;15.32;;;13.60;99.90;;;;;;2084379;28;20079;-71
2021/12/30 00:39:48;;;;;;;29.73;14.95;;;13.60;99.90;;;;;;2080070;28;20025;-73
2021/12/30 00:40:50;;;;;;;28.33;13.23;;;13.60;99.90;;;;;;2080573;28;20063;-72
2021/12/30 00:41:51;;;;;;;31.60;13.55;;;13.60;99.90;;;;;;2072299;28;20041;-72
2021/12/30 00:42:51;;;;;;;28.90;12.98;;;13.60;99.90;;;;;;2078687;28;20078;-71
2021/12/30 00:43:52;;;;;;;30.63;12.95;;;13.60;99.90;;;;;;2086500;28;20044;-71
2021/12/30 00:44:52;;;;;;;32.30;12.55;;;13.60;99.90;;;;;;2079933;28;20029;-71
2021/12/30 00:45:53;;;;;;;36.60;13.80;;;13.60;99.90;;;;;;2081788;28;20985;-72
2021/12/30 00:46:54;;;;;;;30.05;12.07;;;13.60;99.90;;;;;;2085463;28;20032;-71
2021/12/30 00:47:55;;;;;;;29.60;11.98;;;13.60;99.90;;;;;;2085138;28;20021;-71
2021/12/30 00:48:55;;;;;;;31.00;11.10;;;13.60;99.90;;;;;;2089000;28;20032;-71
2021/12/30 00:49:56;;;;;;;21.50;11.30;;;13.60;99.90;;;;;;2081870;28;20052;-71
2021/12/30 00:50:57;;;;;;;23.85;11.18;;;13.60;99.90;;;;;;2080070;28;20036;-71
2021/12/30 00:51:58;;;;;;;29.17;11.70;;;13.60;99.90;;;;;;2080491;28;20120;-71
2021/12/30 00:53:00;;;;;;;24.52;10.35;;;13.60;99.90;;;;;;2080515;28;20036;-71
2021/12/30 00:54:00;;;;;;;24.60;10.63;;;13.60;99.90;;;;;;2089579;28;20135;-71
2021/12/30 00:55:03;;;;;;;27.30;10.70;;;13.60;99.90;;;;;;2084939;28;20049;-71
2021/12/30 00:56:04;;;;;;;32.60;10.07;;;13.60;99.90;;;;;;2084413;28;20477;-71
2021/12/30 00:57:04;;;;;;;25.77;9.85;;;13.60;99.90;;;;;;2087994;28;20495;-72
2021/12/30 00:58:06;;;;;;;26.60;9.70;;;13.60;99.90;;;;;;2088176;28;20404;-71
2021/12/30 00:59:07;;;;;;;30.55;10.50;;;13.60;99.90;;;;;;2080242;28;20044;-72
2021/12/30 01:00:11;;;;;;;34.70;11.38;;;13.60;99.90;;;;;;2088119;28;20029;-72
2021/12/30 01:01:12;;;;;;;26.75;11.10;;;13.60;99.90;;;;;;2094577;28;20030;-72
2021/12/30 01:02:12;;;;;;;22.42;9.57;;;13.60;99.90;;;;;;2082779;28;20468;-71
2021/12/30 01:03:15;;;;;;;28.20;10.63;;;13.60;99.90;;;;;;2079925;28;20102;-71
2021/12/30 01:04:15;;;;;;;24.30;9.85;;;13.60;99.90;;;;;;2081161;28;20052;-71
2021/12/30 01:05:16;;;;;;;30.10;10.13;;;13.60;99.90;;;;;;2080483;28;20033;-71
2021/12/30 01:06:17;;;;;;;33.50;10.27;;;13.60;99.90;;;;;;2080782;28;20284;-71
2021/12/30 01:07:18;;;;;;;25.95;10.02;;;13.60;99.90;;;;;;2084132;28;20037;-71
2021/12/30 01:08:18;;;;;;;27.15;10.02;;;13.60;99.90;;;;;;2089052;28;20112;-71
2021/12/30 01:09:19;;;;;;;27.83;10.45;;;13.60;99.90;;;;;;2088377;28;20021;-72
2021/12/30 01:10:23;;;;;;;28.90;10.18;;;13.60;99.90;;;;;;2083557;28;20045;-72
2021/12/30 01:11:24;;;;;;;31.65;10.68;;;13.60;99.90;;;;;;2088285;28;20084;-71
2021/12/30 01:12:26;;;;;;;31.55;10.60;;;13.60;99.90;;;;;;2086550;28;20108;-71
2021/12/30 01:13:28;;;;;;;26.98;10.15;;;13.60;99.90;;;;;;2085934;28;20024;-71
2021/12/30 01:14:31;;;;;;;29.48;11.00;;;13.60;99.90;;;;;;2079977;28;20030;-71
2021/12/30 01:15:45;;;;;;;31.33;11.45;;;13.60;99.90;;;;;;2078897;28;20043;-72
2021/12/30 01:16:50;;;;;;;28.60;9.57;;;13.60;99.90;;;;;;2082219;28;20440;-71
2021/12/30 01:18:09;;;;;;;26.10;10.43;;;13.60;99.90;;;;;;2087888;28;20025;-71
2021/12/30 01:20:23;;;;;;;32.35;10.88;;;13.50;99.90;;;;;;2079850;28;20507;-71
2021/12/30 01:21:27;;;;;;;38.38;11.38;;;13.60;99.90;;;;;;2079786;28;20055;-71
2021/12/30 01:22:28;;;;;;;27.80;10.23;;;13.60;99.90;;;;;;2080243;28;20033;-71
2021/12/30 01:23:28;;;;;;;27.70;10.70;;;13.60;99.90;;;;;;2083910;28;20052;-71
2021/12/30 01:24:29;;;;;;;32.00;11.40;;;13.60;99.90;;;;;;2087185;28;20055;-71
2021/12/30 01:25:30;;;;;;;29.48;10.85;;;13.60;99.90;;;;;;2086491;28;20028;-71
2021/12/30 01:26:31;;;;;;;27.02;10.48;;;13.60;99.90;;;;;;2088541;28;20032;-71
2021/12/30 01:27:31;;;;;;;33.10;10.27;;;13.60;99.90;;;;;;2082796;28;20025;-71
2021/12/30 01:28:32;;;;;;;29.00;10.13;;;13.60;99.90;;;;;;2080322;28;20022;-71
2021/12/30 01:29:33;;;;;;;28.08;10.50;;;13.60;99.90;;;;;;2080542;28;20025;-71
2021/12/30 01:30:33;;;;;;;22.83;9.30;;;13.60;99.90;;;;;;2087756;28;20025;-71
2021/12/30 01:31:34;;;;;;;26.13;9.70;;;13.60;99.90;;;;;;2087696;28;20033;-71
2021/12/30 01:32:34;;;;;;;27.42;9.00;;;13.60;99.90;;;;;;2088520;28;20033;-71
2021/12/30 01:33:38;;;;;;;26.98;9.70;;;13.60;99.90;;;;;;2088570;28;20035;-71
2021/12/30 01:34:39;;;;;;;27.42;9.93;;;13.60;99.90;;;;;;2088030;28;20108;-71
2021/12/30 01:35:39;;;;;;;26.85;9.15;;;13.60;99.90;;;;;;2088593;28;20036;-71
2021/12/30 01:36:40;;;;;;;29.25;8.90;;;13.60;99.90;;;;;;2088215;28;20051;-71
2021/12/30 01:37:41;;;;;;;28.25;9.75;;;13.60;99.90;;;;;;2088326;28;20070;-71
2021/12/30 01:38:42;;;;;;;27.25;9.30;;;13.60;99.90;;;;;;2084862;28;20385;-71
2021/12/30 01:39:42;;;;;;;24.65;7.97;;;13.60;99.90;;;;;;2091174;28;20028;-71
2021/12/30 01:40:46;;;;;;;30.27;9.02;;;13.60;99.90;;;;;;2092197;28;20047;-71
2021/12/30 01:41:48;;;;;;;30.73;8.57;;;13.60;99.90;;;;;;2085338;28;20420;-71
2021/12/30 01:42:52;;;;;;;29.50;9.63;;;13.60;99.90;;;;;;2080065;28;20017;-71
2021/12/30 01:43:53;;;;;;;22.77;8.20;;;13.60;99.90;;;;;;2079980;28;20101;-71
2021/12/30 01:44:53;;;;;;;22.13;7.90;;;13.60;99.90;;;;;;2085419;28;20032;-71
2021/12/30 01:45:54;;;;;;;26.00;8.38;;;13.60;99.90;;;;;;2084392;28;20032;-71
2021/12/30 01:46:56;;;;;;;28.67;8.82;;;13.60;99.90;;;;;;2088691;28;20043;-71
2021/12/30 01:47:57;;;;;;;28.02;8.65;;;13.60;99.90;;;;;;2088454;28;20356;-71
2021/12/30 01:48:58;;;;;;;26.25;8.27;;;13.60;99.90;;;;;;2083405;28;20033;-71
2021/12/30 01:49:59;;;;;;;26.55;8.15;;;13.60;99.90;;;;;;2080995;28;20029;-71
2021/12/30 01:51:00;;;;;;;23.70;8.52;;;13.60;99.90;;;;;;2079759;28;20068;-71
2021/12/30 01:52:01;;;;;;;28.98;9.15;;;13.60;99.90;;;;;;2080282;28;20036;-71
2021/12/30 01:53:03;;;;;;;25.42;8.52;;;13.60;99.90;;;;;;2079708;28;20074;-71
2021/12/30 01:54:05;;;;;;;28.25;8.38;;;13.60;99.90;;;;;;2080087;28;20079;-71
2021/12/30 01:55:06;;;;;;;29.05;9.25;;;13.60;99.90;;;;;;2079348;28;20053;-71
2021/12/30 01:56:07;;;;;;;27.17;8.95;;;13.60;99.90;;;;;;2078242;28;20616;-71
2021/12/30 01:57:08;;;;;;;28.85;8.70;;;13.60;99.90;;;;;;2079994;28;20063;-71
2021/12/30 01:58:10;;;;;;;29.73;8.85;;;13.60;99.90;;;;;;2087160;28;20021;-71
2021/12/30 01:59:11;;;;;;;32.65;8.75;;;13.60;99.90;;;;;;2079464;28;20032;-71
2021/12/30 02:00:15;;;;;;;34.03;9.48;;;13.60;99.90;;;;;;2080020;28;20033;-71
2021/12/30 02:01:16;;;;;;;27.60;8.63;;;13.70;99.90;;;;;;2079630;28;20033;-71
2021/12/30 02:02:17;;;;;;;26.40;8.38;;;13.70;99.90;;;;;;2080522;28;20025;-71
2021/12/30 02:03:19;;;;;;;23.00;8.13;;;13.70;99.90;;;;;;2078296;28;20021;-71
2021/12/30 02:04:19;;;;;;;28.83;9.15;;;13.70;99.90;;;;;;2079918;28;20037;-71
2021/12/30 02:05:20;;;;;;;27.83;8.80;;;13.70;99.90;;;;;;2079160;28;20061;-71
2021/12/30 02:06:21;;;;;;;28.10;8.30;;;13.70;99.90;;;;;;2080084;28;20034;-71
2021/12/30 02:07:21;;;;;;;26.00;8.00;;;13.70;99.90;;;;;;2079689;28;20084;-71
2021/12/30 02:08:22;;;;;;;27.35;8.35;;;13.70;99.90;;;;;;2080012;28;20049;-71
2021/12/30 02:09:24;;;;;;;28.10;8.32;;;13.70;99.90;;;;;;2079723;28;20025;-71
2021/12/30 02:10:31;;;;;;;26.27;8.27;;;13.70;99.90;;;;;;2079544;28;20104;-71
2021/12/30 02:11:32;;;;;;;32.08;9.02;;;13.70;99.90;;;;;;2085573;28;20489;-72
2021/12/30 02:12:35;;;;;;;29.60;9.10;;;13.70;99.90;;;;;;2090075;28;20043;-71
2021/12/30 02:13:36;;;;;;;32.50;8.93;;;13.70;99.90;;;;;;2079350;28;20029;-71
2021/12/30 02:14:37;;;;;;;31.02;7.65;;;13.70;99.90;;;;;;2079726;28;20024;-71
2021/12/30 02:15:37;;;;;;;26.73;8.23;;;13.70;99.90;;;;;;2079410;28;20109;-71
2021/12/30 02:16:38;;;;;;;25.40;8.80;;;13.70;99.90;;;;;;2079829;28;20037;-71
2021/12/30 02:17:39;;;;;;;24.92;7.68;;;13.70;99.90;;;;;;2079598;28;20033;-71
2021/12/30 02:18:39;;;;;;;34.95;8.73;;;13.70;99.90;;;;;;2084170;28;20021;-71
2021/12/30 02:19:40;;;;;;;31.80;8.88;;;13.70;99.90;;;;;;2083404;28;20431;-71
2021/12/30 02:20:48;;;;;;;29.30;8.55;;;13.70;99.90;;;;;;2086945;28;20028;-71
2021/12/30 02:21:49;;;;;;;28.85;8.55;;;13.70;99.90;;;;;;2081891;28;20105;-71
2021/12/30 02:22:49;;;;;;;28.65;8.55;;;13.70;99.90;;;;;;2079818;28;20533;-71
2021/12/30 02:23:50;;;;;;;26.83;8.30;;;13.70;99.90;;;;;;2079011;28;20021;-71
2021/12/30 02:24:51;;;;;;;31.40;8.65;;;13.70;99.90;;;;;;2078893;28;20092;-71
2021/12/30 02:25:54;;;;;;;25.52;7.30;;;13.70;99.90;;;;;;2079666;28;20025;-71
2021/12/30 02:26:55;;;;;;;25.73;8.20;;;13.70;99.90;;;;;;2084615;28;20017;-71
2021/12/30 02:27:58;;;;;;;29.48;8.32;;;13.70;99.90;;;;;;2081654;28;20032;-71
2021/12/30 02:28:59;;;;;;;33.80;9.40;;;13.70;99.90;;;;;;2079333;28;20045;-71
2021/12/30 02:29:59;;;;;;;31.90;8.40;;;13.70;99.90;;;;;;2078631;28;20679;-71
2021/12/30 02:31:03;;;;;;;26.27;9.15;;;13.70;99.90;;;;;;2087265;28;20144;-71
2021/12/30 02:32:04;;;;;;;33.85;8.75;;;13.70;99.90;;;;;;2079580;28;20927;-71
2021/12/30 02:33:05;;;;;;;23.45;8.48;;;13.70;99.90;;;;;;2079936;28;20547;-71
2021/12/30 02:34:06;;;;;;;29.23;9.02;;;13.70;99.90;;;;;;2079914;28;20635;-71
2021/12/30 02:35:07;;;;;;;25.52;8.82;;;13.70;99.90;;;;;;2079305;28;20108;-71
2021/12/30 02:36:08;;;;;;;24.33;8.77;;;13.70;99.90;;;;;;2079478;28;20048;-71
2021/12/30 02:37:14;;;;;;;30.23;8.57;;;13.70;99.90;;;;;;2079438;28;20113;-71
2021/12/30 02:38:17;;;;;;;25.17;8.20;;;13.70;99.90;;;;;;2076347;28;20180;-71
2021/12/30 02:39:21;;;;;;;25.52;8.20;;;13.70;99.90;;;;;;2076904;28;20034;-71
2021/12/30 02:40:36;;;;;;;25.80;8.35;;;13.70;99.90;;;;;;2084559;28;20113;-71
2021/12/30 02:41:38;;;;;;;32.17;8.90;;;13.70;99.90;;;;;;2077892;28;20029;-71
2021/12/30 02:42:38;;;;;;;31.75;9.27;;;13.70;99.90;;;;;;2079719;28;20017;-71
2021/12/30 02:43:39;;;;;;;24.67;8.00;;;13.70;99.90;;;;;;2079560;28;20052;-71
2021/12/30 02:44:40;;;;;;;28.38;9.18;;;13.70;99.90;;;;;;2079954;28;20026;-71
2021/12/30 02:45:41;;;;;;;30.38;8.93;;;13.80;99.90;;;;;;2075786;28;20022;-71
2021/12/30 02:46:41;;;;;;;26.50;7.72;;;13.70;99.90;;;;;;2079698;28;20029;-71
2021/12/30 02:47:42;;;;;;;24.50;7.78;;;13.80;99.90;;;;;;2079655;28;20049;-71
2021/12/30 02:48:43;;;;;;;28.10;8.05;;;13.80;99.90;;;;;;2071277;28;20029;-71
2021/12/30 02:49:44;;;;;;;27.42;8.30;;;13.80;99.90;;;;;;2078350;28;20018;-71
2021/12/30 02:50:47;;;;;;;26.73;8.25;;;13.80;99.90;;;;;;2077034;28;20029;-71
2021/12/30 02:51:47;;;;;;;21.80;7.78;;;13.80;99.90;;;;;;2073188;28;20105;-71
2021/12/30 02:52:48;;;;;;;26.08;8.25;;;13.80;99.90;;;;;;2078848;28;20025;-71
2021/12/30 02:53:49;;;;;;;24.80;7.35;;;13.80;99.90;;;;;;2080076;28;20034;-71
2021/12/30 02:54:50;;;;;;;26.40;8.98;;;13.80;99.90;;;;;;2075007;28;20025;-71
2021/12/30 02:55:53;;;;;;;20.52;7.07;;;13.80;99.90;;;;;;2078256;28;20112;-71
2021/12/30 02:56:54;;;;;;;23.45;7.80;;;13.80;99.90;;;;;;2079216;28;20052;-71
2021/12/30 02:57:54;;;;;;;23.38;7.25;;;13.80;99.90;;;;;;2084912;28;20631;-71
2021/12/30 02:58:55;;;;;;;31.38;8.20;;;13.80;99.90;;;;;;2081640;28;20025;-71
2021/12/30 02:59:55;;;;;;;27.80;7.63;;;13.80;99.90;;;;;;2088155;28;20096;-71
2021/12/30 03:01:05;;;;;;;26.95;7.78;;;13.80;99.90;;;;;;2084284;28;20033;-71
2021/12/30 03:02:06;;;;;;;22.63;7.50;;;13.80;99.90;;;;;;2074549;28;20044;-71
2021/12/30 03:03:06;;;;;;;26.73;7.95;;;13.80;99.90;;;;;;2076175;28;20018;-71
2021/12/30 03:04:07;;;;;;;26.25;7.75;;;13.80;99.90;;;;;;2080404;28;20422;-72
2021/12/30 03:05:09;;;;;;;24.20;8.05;;;13.80;99.90;;;;;;2080383;28;20028;-71
2021/12/30 03:06:12;;;;;;;33.05;8.05;;;13.80;99.90;;;;;;2083405;28;20083;-71
2021/12/30 03:07:16;;;;;;;36.63;8.63;;;13.80;99.90;;;;;;2079490;28;20033;-71
2021/12/30 03:08:17;;;;;;;19.08;7.28;;;13.80;99.90;;;;;;2077470;28;20102;-72
2021/12/30 03:09:18;;;;;;;25.77;8.35;;;13.80;99.90;;;;;;2081714;28;20388;-71
2021/12/30 03:10:22;;;;;;;29.45;8.13;;;13.80;99.90;;;;;;2081177;28;20057;-71
2021/12/30 03:11:24;;;;;;;25.38;8.55;;;13.80;99.90;;;;;;2079565;28;20116;-71
2021/12/30 03:12:25;;;;;;;27.67;8.10;;;13.80;99.90;;;;;;2080814;28;20021;-72
2021/12/30 03:13:31;;;;;;;25.15;7.43;;;13.80;99.90;;;;;;2080725;28;20105;-72
2021/12/30 03:14:31;;;;;;;21.85;7.50;;;13.80;99.90;;;;;;2081179;28;20428;-71
2021/12/30 03:15:32;;;;;;;28.20;7.60;;;13.80;99.90;;;;;;2080280;28;20025;-71
2021/12/30 03:16:37;;;;;;;29.13;7.47;;;13.80;99.90;;;;;;2080487;28;20029;-71
2021/12/30 03:17:39;;;;;;;25.02;7.43;;;13.80;99.90;;;;;;2080676;28;20104;-71
2021/12/30 03:18:42;;;;;;;27.25;7.63;;;13.80;99.90;;;;;;2080928;28;20033;-71
2021/12/30 03:19:43;;;;;;;20.80;6.90;;;13.80;99.90;;;;;;2073861;28;20022;-71
2021/12/30 03:20:43;;;;;;;24.85;7.40;;;13.80;99.90;;;;;;2086618;28;20023;-71
2021/12/30 03:21:44;;;;;;;24.08;7.13;;;13.80;99.90;;;;;;2083677;28;20029;-71
2021/12/30 03:22:45;;;;;;;30.45;8.05;;;13.80;99.90;;;;;;2087145;28;20045;-71
2021/12/30 03:23:46;;;;;;;22.13;6.88;;;13.80;99.90;;;;;;2080629;28;20057;-71
2021/12/30 03:24:47;;;;;;;32.80;8.35;;;13.80;99.90;;;;;;2081914;28;20022;-71
2021/12/30 03:25:48;;;;;;;28.55;7.85;;;13.80;99.90;;;;;;2086862;28;20033;-72
2021/12/30 03:26:48;;;;;;;23.80;7.22;;;13.80;99.90;;;;;;2085599;28;20017;-71
2021/12/30 03:27:49;;;;;;;20.52;6.55;;;13.80;99.90;;;;;;2083143;28;20025;-72
2021/12/30 03:28:50;;;;;;;27.40;7.53;;;13.80;99.90;;;;;;2080710;28;20040;-72
2021/12/30 03:29:50;;;;;;;30.67;7.50;;;13.80;99.90;;;;;;2080070;28;20018;-71
2021/12/30 03:30:51;;;;;;;31.80;7.45;;;13.80;99.90;;;;;;2080070;28;20022;-71
2021/12/30 03:31:52;;;;;;;27.83;7.60;;;13.80;99.90;;;;;;2080673;28;20025;-71
2021/12/30 03:32:52;;;;;;;24.25;7.13;;;13.80;99.90;;;;;;2080839;28;20036;-72
2021/12/30 03:33:53;;;;;;;23.88;7.18;;;13.80;99.90;;;;;;2080849;28;20026;-72
2021/12/30 03:34:54;;;;;;;20.35;7.10;;;13.80;99.90;;;;;;2080388;28;20035;-72
2021/12/30 03:35:59;;;;;;;30.20;7.10;;;13.80;99.90;;;;;;2079255;28;20033;-71
2021/12/30 03:36:59;;;;;;;29.52;8.18;;;13.80;99.90;;;;;;2075678;28;20022;-71
2021/12/30 03:38:00;;;;;;;25.90;8.48;;;13.80;99.90;;;;;;2082151;28;20021;-71
2021/12/30 03:39:01;;;;;;;24.63;7.78;;;13.80;99.90;;;;;;2081209;28;20483;-72
2021/12/30 03:40:05;;;;;;;25.30;7.50;;;13.80;99.90;;;;;;2097579;28;20033;-72
2021/12/30 03:41:08;;;;;;;28.63;7.75;;;13.80;99.90;;;;;;2094736;28;20045;-72
2021/12/30 03:42:09;;;;;;;21.55;7.85;;;13.80;99.90;;;;;;2090660;28;20032;-72
2021/12/30 03:43:09;;;;;;;28.85;7.97;;;13.80;99.90;;;;;;2090496;28;20032;-72
2021/12/30 03:44:10;;;;;;;20.83;6.85;;;13.80;99.90;;;;;;2090622;28;20078;-71
2021/12/30 03:45:13;;;;;;;22.90;8.23;;;13.80;99.90;;;;;;2085761;28;20124;-72
2021/12/30 03:46:14;;;;;;;25.00;8.23;;;13.80;99.90;;;;;;2094274;28;20033;-72
2021/12/30 03:47:18;;;;;;;24.00;7.65;;;13.80;99.90;;;;;;2093036;28;20366;-72
2021/12/30 03:48:19;;;;;;;23.10;7.88;;;13.80;99.90;;;;;;2085790;28;20119;-72
2021/12/30 03:49:19;;;;;;;23.17;8.27;;;13.80;99.90;;;;;;2085532;28;20047;-72
2021/12/30 03:50:24;;;;;;;23.58;9.02;;;13.80;99.90;;;;;;2090900;28;20048;-72
2021/12/30 03:51:25;;;;;;;23.83;8.63;;;13.80;99.90;;;;;;2082636;28;20080;-71
2021/12/30 03:52:30;;;;;;;23.55;9.07;;;13.80;99.90;;;;;;2081779;28;20515;-71
2021/12/30 03:53:31;;;;;;;23.10;8.77;;;13.80;99.90;;;;;;2081601;28;20032;-71
2021/12/30 03:54:32;;;;;;;23.50;7.90;;;13.80;99.90;;;;;;2082303;28;20491;-72
2021/12/30 03:55:33;;;;;;;24.48;8.02;;;13.80;99.90;;;;;;2079535;28;20149;-71
2021/12/30 03:56:35;;;;;;;23.55;8.85;;;13.80;99.90;;;;;;2089678;28;20086;-71
2021/12/30 03:57:36;;;;;;;26.95;9.40;;;13.80;99.90;;;;;;2085014;28;20473;-72
2021/12/30 03:58:39;;;;;;;25.50;8.88;;;13.80;99.90;;;;;;2077503;28;20064;-72
2021/12/30 03:59:40;;;;;;;25.25;9.20;;;13.80;99.90;;;;;;2082217;28;20473;-72
2021/12/30 04:00:41;;;;;;;22.63;8.60;;;13.80;99.90;;;;;;2082166;28;20385;-72
2021/12/30 04:01:42;;;;;;;25.83;8.77;;;13.90;99.90;;;;;;2081462;28;20022;-71
2021/12/30 04:02:42;;;;;;;18.75;7.97;;;13.90;99.90;;;;;;2082880;28;20025;-72
2021/12/30 04:03:43;;;;;;;24.00;9.75;;;13.90;99.90;;;;;;2079025;28;20029;-72
2021/12/30 04:04:43;;;;;;;26.33;9.27;;;13.90;99.90;;;;;;2084441;28;20021;-72
2021/12/30 04:05:44;;;;;;;21.52;8.73;;;13.90;99.90;;;;;;2083306;28;20024;-71
2021/12/30 04:06:45;;;;;;;21.35;9.32;;;13.90;99.90;;;;;;2081414;28;20020;-71
2021/12/30 04:07:46;;;;;;;25.83;9.15;;;13.90;99.90;;;;;;2080975;28;20050;-72
2021/12/30 04:08:47;;;;;;;26.33;9.52;;;13.90;99.90;;;;;;2084066;28;20591;-72
2021/12/30 04:09:47;;;;;;;22.98;10.15;;;13.90;99.90;;;;;;2088588;28;20021;-72
2021/12/30 04:10:48;;;;;;;27.52;9.65;;;13.90;99.90;;;;;;2078712;28;20043;-71
2021/12/30 04:11:49;;;;;;;22.42;8.90;;;13.90;99.90;;;;;;2080273;28;20029;-71
2021/12/30 04:12:52;;;;;;;19.65;8.65;;;13.90;99.90;;;;;;2077454;28;20095;-72
2021/12/30 04:13:52;;;;;;;25.63;9.52;;;13.90;99.90;;;;;;2079036;28;20037;-71
2021/12/30 04:14:53;;;;;;;23.13;8.98;;;13.90;99.90;;;;;;2076870;28;20032;-72
2021/12/30 04:15:54;;;;;;;20.70;9.32;;;13.90;99.90;;;;;;2082520;28;20025;-72
2021/12/30 04:16:55;;;;;;;21.67;9.10;;;13.90;99.90;;;;;;2076813;28;20025;-71
2021/12/30 04:17:55;;;;;;;18.90;8.80;;;13.90;99.90;;;;;;2080125;28;20055;-71
2021/12/30 04:18:56;;;;;;;24.33;9.48;;;13.90;99.90;;;;;;2087091;28;20029;-71
2021/12/30 04:19:57;;;;;;;24.63;9.18;;;13.90;99.90;;;;;;2082001;28;20108;-72
2021/12/30 04:20:57;;;;;;;21.02;9.18;;;14.00;99.90;;;;;;2081450;28;20057;-71
2021/12/30 04:21:58;;;;;;;25.98;9.43;;;14.00;99.90;;;;;;2085899;28;20029;-71
2021/12/30 04:22:59;;;;;;;17.75;8.38;;;14.00;99.90;;;;;;2073949;28;20033;-71
2021/12/30 04:24:00;;;;;;;19.50;9.27;;;14.00;99.90;;;;;;2089087;28;20075;-72
2021/12/30 04:25:02;;;;;;;20.92;8.77;;;14.00;99.90;;;;;;2088623;28;20087;-71
2021/12/30 04:26:03;;;;;;;21.30;8.40;;;14.00;99.90;;;;;;2088236;28;20028;-72
2021/12/30 04:27:03;;;;;;;23.25;9.77;;;14.00;99.90;;;;;;2080722;28;20056;-71
2021/12/30 04:28:04;;;;;;;19.27;9.40;;;14.00;99.90;;;;;;2080156;28;20022;-71
2021/12/30 04:29:07;;;;;;;20.92;9.65;;;14.00;99.90;;;;;;2080909;28;20480;-71
2021/12/30 04:30:10;;;;;;;23.60;10.10;;;14.00;99.90;;;;;;2080669;28;20060;-71
2021/12/30 04:31:11;;;;;;;23.77;9.90;;;14.00;99.90;;;;;;2080480;28;20036;-71
2021/12/30 04:32:12;;;;;;;19.55;9.48;;;14.00;99.90;;;;;;2072381;28;20042;-72
2021/12/30 04:33:13;;;;;;;19.40;9.13;;;14.00;99.90;;;;;;2076374;28;20039;-72
2021/12/30 04:34:14;;;;;;;23.25;9.65;;;14.00;99.90;;;;;;2079537;28;20120;-72
2021/12/30 04:35:15;;;;;;;18.17;8.68;;;14.00;99.90;;;;;;2087108;28;20041;-72
2021/12/30 04:36:15;;;;;;;20.90;9.32;;;14.00;99.90;;;;;;2081924;28;20437;-71
2021/12/30 04:37:16;;;;;;;23.48;9.30;;;14.00;99.90;;;;;;2080290;28;20543;-72
2021/12/30 04:38:17;;;;;;;21.42;9.20;;;14.00;99.90;;;;;;2090491;28;20096;-72
2021/12/30 04:39:18;;;;;;;17.20;8.70;;;14.00;99.90;;;;;;2089015;28;20515;-72
2021/12/30 04:40:18;;;;;;;22.42;10.02;;;14.00;99.90;;;;;;2088238;28;20029;-71
2021/12/30 04:41:19;;;;;;;21.63;9.73;;;14.00;99.90;;;;;;2080849;28;20405;-72
2021/12/30 04:42:19;;;;;;;17.75;8.90;;;14.00;99.90;;;;;;2080454;28;20091;-72
2021/12/30 04:43:21;;;;;;;19.77;8.80;;;14.00;99.90;;;;;;2079980;28;20093;-71
2021/12/30 04:44:21;;;;;;;16.45;8.13;;;14.00;99.90;;;;;;2080097;28;21911;-72
2021/12/30 04:45:22;;;;;;;19.90;8.65;;;14.00;99.90;;;;;;2079192;28;20343;-72
2021/12/30 04:46:23;;;;;;;19.48;9.35;;;14.00;99.90;;;;;;2085424;28;20040;-72
2021/12/30 04:47:25;;;;;;;16.70;8.10;;;14.10;99.90;;;;;;2081078;28;20482;-72
2021/12/30 04:48:26;;;;;;;16.50;8.68;;;14.00;99.90;;;;;;2083942;28;20026;-72
2021/12/30 04:49:27;;;;;;;19.38;8.80;;;14.10;99.90;;;;;;2079946;28;20677;-72
2021/12/30 04:50:27;;;;;;;17.27;9.02;;;14.10;99.90;;;;;;2080110;28;20022;-72
2021/12/30 04:51:28;;;;;;;16.08;7.90;;;14.10;99.90;;;;;;2081064;28;20021;-72
2021/12/30 04:52:28;;;;;;;18.40;8.82;;;14.10;99.90;;;;;;2080664;28;20033;-72
2021/12/30 04:53:29;;;;;;;16.55;7.80;;;14.10;99.90;;;;;;2080401;28;20034;-72
2021/12/30 04:54:30;;;;;;;15.70;8.27;;;14.10;99.90;;;;;;2080172;28;20104;-72
2021/12/30 04:55:31;;;;;;;16.63;8.40;;;14.00;99.90;;;;;;2078896;28;20025;-71
2021/12/30 04:56:31;;;;;;;18.67;7.55;;;14.10;99.90;;;;;;2082134;28;20036;-72
2021/12/30 04:57:32;;;;;;;15.85;8.05;;;14.10;99.90;;;;;;2083543;28;20654;-72
2021/12/30 04:58:32;;;;;;;16.98;7.90;;;14.10;99.90;;;;;;2081341;28;20054;-72
2021/12/30 04:59:33;;;;;;;12.00;7.38;;;14.10;99.90;;;;;;2080906;28;20028;-71
2021/12/30 05:00:34;;;;;;;14.30;7.15;;;14.10;99.90;;;;;;2080181;28;20061;-71
2021/12/30 05:01:35;;;;;;;14.40;7.90;;;14.10;99.90;;;;;;2080141;28;20044;-71
2021/12/30 05:03:00;;;;;;;14.00;6.50;;;14.10;99.90;;;;;;2081437;28;20034;-71
2021/12/30 05:03:56;;;;;;;12.15;7.18;;;14.10;99.90;;;;;;2076406;28;20080;-71
2021/12/30 05:04:57;;;;;;;11.75;6.18;;;14.10;99.90;;;;;;2079776;28;20060;-71
2021/12/30 05:05:58;;;;;;;11.32;6.07;;;14.10;99.90;;;;;;2080275;28;20030;-71
2021/12/30 05:06:59;;;;;;;14.48;5.32;;;14.10;99.90;;;;;;2080209;28;20115;-72
2021/12/30 05:07:59;;;;;;;9.98;5.68;;;14.20;99.90;;;;;;2079033;28;20030;-72
2021/12/30 05:09:00;;;;;;;8.35;5.30;;;14.20;99.90;;;;;;2078989;28;20022;-71
2021/12/30 05:10:01;;;;;;;12.75;4.68;;;14.20;99.90;;;;;;2080007;28;20048;-71
2021/12/30 05:11:01;;;;;;;7.97;4.60;;;14.20;99.90;;;;;;2077432;28;20028;-72
2021/12/30 05:12:02;;;;;;;7.43;4.28;;;14.20;99.90;;;;;;2079945;28;20366;-71
2021/12/30 05:13:04;;;;;;;10.32;4.80;;;14.20;99.90;;;;;;2079899;28;20026;-71
2021/12/30 05:14:05;;;;;;;9.60;3.92;;;14.20;99.90;;;;;;2079746;28;20044;-72
2021/12/30 05:15:06;;;;;;;6.72;3.70;;;14.20;99.90;;;;;;2079281;28;20045;-72
2021/12/30 05:16:06;;;;;;;6.38;3.03;;;14.20;99.90;;;;;;2079985;28;20033;-71